sensor_id;sensor_type;location;lat;lon;timestamp;P1;durP1;ratioP1;P2;durP2;ratioP2
20124;SDS011;10223;50.862;4.360;2023-03-30T00:01:38;9.10;;;2.00;;
20124;SDS011;10223;50.862;4.360;2023-03-30T00:04:05;4.73;;;1.83;;
20124;SDS011;10223;50.862;4.360;2023-03-30T00:06:35;10.77;;;2.07;;
20124;SDS011;10223;50.862;4.360;2023-03-30T00:09:03;8.30;;;1.90;;
20124;SDS011;10223;50.862;4.360;2023-03-30T00:11:31;8.23;;;2.03;;
20124;SDS011;10223;50.862;4.360;2023-03-30T00:13:59;6.43;;;1.90;;
20124;SDS011;10223;50.862;4.360;2023-03-30T00:16:26;6.30;;;2.07;;
20124;SDS011;10223;50.862;4.360;2023-03-30T00:18:53;5.70;;;1.60;;
20124;SDS011;10223;50.862;4.360;2023-03-30T00:21:21;9.27;;;2.00;;
20124;SDS011;10223;50.862;4.360;2023-03-30T00:23:48;6.63;;;2.17;;
20124;SDS011;10223;50.862;4.360;2023-03-30T00:26:16;8.70;;;2.20;;
20124;SDS011;10223;50.862;4.360;2023-03-30T00:28:44;6.87;;;1.73;;
20124;SDS011;10223;50.862;4.360;2023-03-30T00:31:11;5.27;;;1.60;;
20124;SDS011;10223;50.862;4.360;2023-03-30T00:33:38;5.40;;;1.47;;
20124;SDS011;10223;50.862;4.360;2023-03-30T00:36:05;4.37;;;1.50;;
20124;SDS011;10223;50.862;4.360;2023-03-30T00:38:33;8.83;;;1.80;;
20124;SDS011;10223;50.862;4.360;2023-03-30T00:41:00;6.53;;;1.90;;
20124;SDS011;10223;50.862;4.360;2023-03-30T00:43:27;3.80;;;1.40;;
20124;SDS011;10223;50.862;4.360;2023-03-30T00:45:56;6.33;;;1.20;;
20124;SDS011;10223;50.862;4.360;2023-03-30T00:48:23;6.87;;;1.40;;
20124;SDS011;10223;50.862;4.360;2023-03-30T00:50:54;6.30;;;1.57;;
20124;SDS011;10223;50.862;4.360;2023-03-30T00:53:25;7.60;;;1.63;;
20124;SDS011;10223;50.862;4.360;2023-03-30T00:55:54;6.50;;;1.60;;
20124;SDS011;10223;50.862;4.360;2023-03-30T00:58:22;6.30;;;1.40;;
20124;SDS011;10223;50.862;4.360;2023-03-30T01:00:50;5.20;;;1.57;;
20124;SDS011;10223;50.862;4.360;2023-03-30T01:03:20;7.27;;;1.33;;
20124;SDS011;10223;50.862;4.360;2023-03-30T01:05:50;7.13;;;1.40;;
20124;SDS011;10223;50.862;4.360;2023-03-30T01:08:18;4.07;;;1.40;;
20124;SDS011;10223;50.862;4.360;2023-03-30T01:10:48;8.63;;;1.93;;
20124;SDS011;10223;50.862;4.360;2023-03-30T01:13:16;3.03;;;1.07;;
20124;SDS011;10223;50.862;4.360;2023-03-30T01:15:49;4.27;;;1.57;;
20124;SDS011;10223;50.862;4.360;2023-03-30T01:18:33;8.13;;;1.37;;
20124;SDS011;10223;50.862;4.360;2023-03-30T01:21:31;4.97;;;1.10;;
20124;SDS011;10223;50.862;4.360;2023-03-30T01:27:24;6.30;;;1.77;;
20124;SDS011;10223;50.862;4.360;2023-03-30T01:30:21;4.10;;;1.33;;
20124;SDS011;10223;50.862;4.360;2023-03-30T01:39:17;5.83;;;1.53;;
20124;SDS011;10223;50.862;4.360;2023-03-30T01:41:53;6.37;;;1.60;;
20124;SDS011;10223;50.862;4.360;2023-03-30T01:44:29;3.63;;;1.53;;
20124;SDS011;10223;50.862;4.360;2023-03-30T01:47:03;7.07;;;1.40;;
20124;SDS011;10223;50.862;4.360;2023-03-30T01:49:37;5.97;;;1.33;;
20124;SDS011;10223;50.862;4.360;2023-03-30T01:52:09;4.17;;;1.50;;
20124;SDS011;10223;50.862;4.360;2023-03-30T01:54:43;5.73;;;2.00;;
20124;SDS011;10223;50.862;4.360;2023-03-30T01:57:14;4.60;;;1.47;;
20124;SDS011;10223;50.862;4.360;2023-03-30T01:59:46;9.67;;;1.83;;
20124;SDS011;10223;50.862;4.360;2023-03-30T02:02:20;3.67;;;1.27;;
20124;SDS011;10223;50.862;4.360;2023-03-30T02:04:50;3.93;;;1.20;;
20124;SDS011;10223;50.862;4.360;2023-03-30T02:07:22;4.40;;;1.53;;
20124;SDS011;10223;50.862;4.360;2023-03-30T02:09:55;5.00;;;1.40;;
20124;SDS011;10223;50.862;4.360;2023-03-30T02:12:26;4.90;;;1.63;;
20124;SDS011;10223;50.862;4.360;2023-03-30T02:14:55;5.30;;;1.80;;
20124;SDS011;10223;50.862;4.360;2023-03-30T02:17:27;7.17;;;1.60;;
20124;SDS011;10223;50.862;4.360;2023-03-30T02:19:55;4.47;;;1.40;;
20124;SDS011;10223;50.862;4.360;2023-03-30T02:22:22;8.43;;;1.30;;
20124;SDS011;10223;50.862;4.360;2023-03-30T02:24:52;9.33;;;1.70;;
20124;SDS011;10223;50.862;4.360;2023-03-30T02:27:21;7.47;;;1.57;;
20124;SDS011;10223;50.862;4.360;2023-03-30T02:29:50;9.23;;;2.23;;
20124;SDS011;10223;50.862;4.360;2023-03-30T02:32:19;7.43;;;1.27;;
20124;SDS011;10223;50.862;4.360;2023-03-30T02:34:51;4.77;;;1.40;;
20124;SDS011;10223;50.862;4.360;2023-03-30T02:37:36;4.17;;;1.23;;
20124;SDS011;10223;50.862;4.360;2023-03-30T02:40:13;6.27;;;1.70;;
20124;SDS011;10223;50.862;4.360;2023-03-30T02:42:54;6.60;;;1.60;;
20124;SDS011;10223;50.862;4.360;2023-03-30T02:45:38;6.90;;;1.70;;
20124;SDS011;10223;50.862;4.360;2023-03-30T02:48:15;6.70;;;1.83;;
20124;SDS011;10223;50.862;4.360;2023-03-30T02:50:50;2.90;;;1.30;;
20124;SDS011;10223;50.862;4.360;2023-03-30T02:53:24;6.47;;;1.73;;
20124;SDS011;10223;50.862;4.360;2023-03-30T02:55:59;3.77;;;1.37;;
20124;SDS011;10223;50.862;4.360;2023-03-30T02:58:35;4.23;;;1.60;;
20124;SDS011;10223;50.862;4.360;2023-03-30T03:01:08;5.67;;;1.20;;
20124;SDS011;10223;50.862;4.360;2023-03-30T03:03:39;7.20;;;1.63;;
20124;SDS011;10223;50.862;4.360;2023-03-30T03:06:09;6.27;;;1.50;;
20124;SDS011;10223;50.862;4.360;2023-03-30T03:08:39;4.77;;;1.43;;
20124;SDS011;10223;50.862;4.360;2023-03-30T03:11:09;5.50;;;1.53;;
20124;SDS011;10223;50.862;4.360;2023-03-30T03:13:37;4.37;;;1.50;;
20124;SDS011;10223;50.862;4.360;2023-03-30T03:16:05;5.27;;;1.93;;
20124;SDS011;10223;50.862;4.360;2023-03-30T03:18:35;7.53;;;1.63;;
20124;SDS011;10223;50.862;4.360;2023-03-30T03:21:04;5.20;;;1.30;;
20124;SDS011;10223;50.862;4.360;2023-03-30T03:23:31;4.07;;;1.30;;
20124;SDS011;10223;50.862;4.360;2023-03-30T03:25:58;7.47;;;2.50;;
20124;SDS011;10223;50.862;4.360;2023-03-30T03:28:26;7.13;;;1.70;;
20124;SDS011;10223;50.862;4.360;2023-03-30T03:30:54;6.10;;;1.40;;
20124;SDS011;10223;50.862;4.360;2023-03-30T03:33:22;3.37;;;1.30;;
20124;SDS011;10223;50.862;4.360;2023-03-30T03:35:49;5.07;;;1.30;;
20124;SDS011;10223;50.862;4.360;2023-03-30T03:38:18;5.70;;;1.50;;
20124;SDS011;10223;50.862;4.360;2023-03-30T03:40:47;6.43;;;1.27;;
20124;SDS011;10223;50.862;4.360;2023-03-30T03:43:15;6.80;;;1.67;;
20124;SDS011;10223;50.862;4.360;2023-03-30T03:45:43;7.00;;;1.50;;
20124;SDS011;10223;50.862;4.360;2023-03-30T03:48:11;4.20;;;1.23;;
20124;SDS011;10223;50.862;4.360;2023-03-30T03:50:38;4.80;;;1.23;;
20124;SDS011;10223;50.862;4.360;2023-03-30T03:53:06;5.20;;;1.40;;
20124;SDS011;10223;50.862;4.360;2023-03-30T03:55:33;4.67;;;1.17;;
20124;SDS011;10223;50.862;4.360;2023-03-30T03:58:00;4.97;;;1.70;;
20124;SDS011;10223;50.862;4.360;2023-03-30T04:00:28;3.70;;;1.40;;
20124;SDS011;10223;50.862;4.360;2023-03-30T04:02:55;3.17;;;1.40;;
20124;SDS011;10223;50.862;4.360;2023-03-30T04:05:23;7.63;;;1.47;;
20124;SDS011;10223;50.862;4.360;2023-03-30T04:07:51;6.33;;;1.07;;
20124;SDS011;10223;50.862;4.360;2023-03-30T04:10:20;5.87;;;1.80;;
20124;SDS011;10223;50.862;4.360;2023-03-30T04:12:47;5.07;;;1.50;;
20124;SDS011;10223;50.862;4.360;2023-03-30T04:15:14;4.90;;;1.50;;
20124;SDS011;10223;50.862;4.360;2023-03-30T04:17:41;3.83;;;1.53;;
20124;SDS011;10223;50.862;4.360;2023-03-30T04:20:09;6.50;;;1.37;;
20124;SDS011;10223;50.862;4.360;2023-03-30T04:22:38;3.10;;;1.53;;
20124;SDS011;10223;50.862;4.360;2023-03-30T04:25:06;2.83;;;1.20;;
20124;SDS011;10223;50.862;4.360;2023-03-30T04:27:33;8.17;;;1.57;;
20124;SDS011;10223;50.862;4.360;2023-03-30T04:30:02;7.90;;;1.87;;
20124;SDS011;10223;50.862;4.360;2023-03-30T04:32:29;9.20;;;1.50;;
20124;SDS011;10223;50.862;4.360;2023-03-30T04:34:58;5.27;;;1.83;;
20124;SDS011;10223;50.862;4.360;2023-03-30T04:37:25;6.40;;;1.57;;
20124;SDS011;10223;50.862;4.360;2023-03-30T04:39:56;6.73;;;1.50;;
20124;SDS011;10223;50.862;4.360;2023-03-30T04:42:24;5.50;;;1.70;;
20124;SDS011;10223;50.862;4.360;2023-03-30T04:44:54;5.63;;;1.60;;
20124;SDS011;10223;50.862;4.360;2023-03-30T04:47:21;3.43;;;1.53;;
20124;SDS011;10223;50.862;4.360;2023-03-30T04:49:48;7.30;;;1.60;;
20124;SDS011;10223;50.862;4.360;2023-03-30T04:52:15;6.77;;;1.97;;
20124;SDS011;10223;50.862;4.360;2023-03-30T04:54:42;8.33;;;1.53;;
20124;SDS011;10223;50.862;4.360;2023-03-30T04:57:10;3.20;;;1.33;;
20124;SDS011;10223;50.862;4.360;2023-03-30T04:59:38;7.10;;;1.67;;
20124;SDS011;10223;50.862;4.360;2023-03-30T05:02:05;5.57;;;1.70;;
20124;SDS011;10223;50.862;4.360;2023-03-30T05:04:32;2.93;;;1.23;;
20124;SDS011;10223;50.862;4.360;2023-03-30T05:06:58;9.27;;;2.10;;
20124;SDS011;10223;50.862;4.360;2023-03-30T05:09:25;8.13;;;1.60;;
20124;SDS011;10223;50.862;4.360;2023-03-30T05:11:52;11.20;;;1.43;;
20124;SDS011;10223;50.862;4.360;2023-03-30T05:14:21;8.73;;;1.50;;
20124;SDS011;10223;50.862;4.360;2023-03-30T05:16:48;14.10;;;1.53;;
20124;SDS011;10223;50.862;4.360;2023-03-30T05:19:15;7.60;;;1.73;;
20124;SDS011;10223;50.862;4.360;2023-03-30T05:21:42;4.90;;;1.50;;
20124;SDS011;10223;50.862;4.360;2023-03-30T05:24:13;7.57;;;1.73;;
20124;SDS011;10223;50.862;4.360;2023-03-30T05:26:40;8.97;;;1.70;;
20124;SDS011;10223;50.862;4.360;2023-03-30T05:29:07;8.07;;;1.60;;
20124;SDS011;10223;50.862;4.360;2023-03-30T05:31:35;4.77;;;1.33;;
20124;SDS011;10223;50.862;4.360;2023-03-30T05:34:02;5.60;;;1.60;;
20124;SDS011;10223;50.862;4.360;2023-03-30T05:36:29;7.27;;;1.80;;
20124;SDS011;10223;50.862;4.360;2023-03-30T05:38:56;6.50;;;1.47;;
20124;SDS011;10223;50.862;4.360;2023-03-30T05:41:23;13.17;;;1.83;;
20124;SDS011;10223;50.862;4.360;2023-03-30T05:43:52;11.97;;;2.60;;
20124;SDS011;10223;50.862;4.360;2023-03-30T05:46:19;11.07;;;1.60;;
20124;SDS011;10223;50.862;4.360;2023-03-30T05:48:48;6.87;;;1.73;;
20124;SDS011;10223;50.862;4.360;2023-03-30T05:51:15;12.07;;;2.53;;
20124;SDS011;10223;50.862;4.360;2023-03-30T05:53:42;12.07;;;2.10;;
20124;SDS011;10223;50.862;4.360;2023-03-30T05:56:10;12.87;;;1.97;;
20124;SDS011;10223;50.862;4.360;2023-03-30T05:58:37;10.40;;;2.00;;
20124;SDS011;10223;50.862;4.360;2023-03-30T06:01:04;7.97;;;2.00;;
20124;SDS011;10223;50.862;4.360;2023-03-30T06:03:33;11.17;;;1.83;;
20124;SDS011;10223;50.862;4.360;2023-03-30T06:06:02;8.23;;;2.20;;
20124;SDS011;10223;50.862;4.360;2023-03-30T06:08:29;9.10;;;2.20;;
20124;SDS011;10223;50.862;4.360;2023-03-30T06:10:56;12.27;;;1.80;;
20124;SDS011;10223;50.862;4.360;2023-03-30T06:13:23;15.03;;;2.20;;
20124;SDS011;10223;50.862;4.360;2023-03-30T06:15:51;7.03;;;1.50;;
20124;SDS011;10223;50.862;4.360;2023-03-30T06:18:18;8.87;;;2.40;;
20124;SDS011;10223;50.862;4.360;2023-03-30T06:20:46;9.40;;;2.50;;
20124;SDS011;10223;50.862;4.360;2023-03-30T06:23:14;12.00;;;1.80;;
20124;SDS011;10223;50.862;4.360;2023-03-30T06:25:43;12.80;;;1.77;;
20124;SDS011;10223;50.862;4.360;2023-03-30T06:28:11;9.27;;;2.33;;
20124;SDS011;10223;50.862;4.360;2023-03-30T06:30:38;9.27;;;1.83;;
20124;SDS011;10223;50.862;4.360;2023-03-30T06:33:06;8.87;;;2.20;;
20124;SDS011;10223;50.862;4.360;2023-03-30T06:35:33;12.83;;;1.80;;
20124;SDS011;10223;50.862;4.360;2023-03-30T06:38:00;10.03;;;2.03;;
20124;SDS011;10223;50.862;4.360;2023-03-30T06:40:28;9.17;;;1.83;;
20124;SDS011;10223;50.862;4.360;2023-03-30T06:42:55;6.63;;;1.60;;
20124;SDS011;10223;50.862;4.360;2023-03-30T06:45:22;11.77;;;2.33;;
20124;SDS011;10223;50.862;4.360;2023-03-30T06:47:49;13.10;;;2.73;;
20124;SDS011;10223;50.862;4.360;2023-03-30T06:50:16;11.67;;;1.90;;
20124;SDS011;10223;50.862;4.360;2023-03-30T06:52:43;17.03;;;2.87;;
20124;SDS011;10223;50.862;4.360;2023-03-30T06:55:10;13.27;;;2.30;;
20124;SDS011;10223;50.862;4.360;2023-03-30T06:57:39;10.43;;;2.33;;
20124;SDS011;10223;50.862;4.360;2023-03-30T07:00:06;13.70;;;2.10;;
20124;SDS011;10223;50.862;4.360;2023-03-30T07:02:37;13.30;;;2.57;;
20124;SDS011;10223;50.862;4.360;2023-03-30T07:05:04;12.47;;;2.30;;
20124;SDS011;10223;50.862;4.360;2023-03-30T07:07:32;14.67;;;3.00;;
20124;SDS011;10223;50.862;4.360;2023-03-30T07:10:00;13.37;;;2.60;;
20124;SDS011;10223;50.862;4.360;2023-03-30T07:12:31;11.07;;;2.27;;
20124;SDS011;10223;50.862;4.360;2023-03-30T07:15:00;15.67;;;2.23;;
20124;SDS011;10223;50.862;4.360;2023-03-30T07:17:27;13.43;;;2.63;;
20124;SDS011;10223;50.862;4.360;2023-03-30T07:19:54;11.47;;;2.43;;
20124;SDS011;10223;50.862;4.360;2023-03-30T07:22:21;11.50;;;2.20;;
20124;SDS011;10223;50.862;4.360;2023-03-30T07:24:48;13.33;;;2.27;;
20124;SDS011;10223;50.862;4.360;2023-03-30T07:27:15;14.87;;;2.83;;
20124;SDS011;10223;50.862;4.360;2023-03-30T07:29:42;22.50;;;3.00;;
20124;SDS011;10223;50.862;4.360;2023-03-30T07:32:10;12.83;;;2.63;;
20124;SDS011;10223;50.862;4.360;2023-03-30T07:34:37;18.67;;;3.00;;
20124;SDS011;10223;50.862;4.360;2023-03-30T07:37:04;9.63;;;2.40;;
20124;SDS011;10223;50.862;4.360;2023-03-30T07:39:31;17.03;;;3.00;;
20124;SDS011;10223;50.862;4.360;2023-03-30T07:41:59;14.27;;;2.83;;
20124;SDS011;10223;50.862;4.360;2023-03-30T07:44:26;21.43;;;3.47;;
20124;SDS011;10223;50.862;4.360;2023-03-30T07:46:54;13.53;;;3.00;;
20124;SDS011;10223;50.862;4.360;2023-03-30T07:49:23;18.13;;;3.27;;
20124;SDS011;10223;50.862;4.360;2023-03-30T07:51:51;17.47;;;2.80;;
20124;SDS011;10223;50.862;4.360;2023-03-30T07:54:19;13.77;;;2.60;;
20124;SDS011;10223;50.862;4.360;2023-03-30T07:56:46;15.80;;;2.83;;
20124;SDS011;10223;50.862;4.360;2023-03-30T07:59:16;17.67;;;3.30;;
20124;SDS011;10223;50.862;4.360;2023-03-30T08:01:43;12.23;;;2.60;;
20124;SDS011;10223;50.862;4.360;2023-03-30T08:04:14;19.20;;;3.93;;
20124;SDS011;10223;50.862;4.360;2023-03-30T08:06:42;11.33;;;2.80;;
20124;SDS011;10223;50.862;4.360;2023-03-30T08:09:09;11.00;;;3.13;;
20124;SDS011;10223;50.862;4.360;2023-03-30T08:11:36;14.23;;;2.67;;
20124;SDS011;10223;50.862;4.360;2023-03-30T08:14:03;16.50;;;3.63;;
20124;SDS011;10223;50.862;4.360;2023-03-30T08:16:31;15.40;;;2.60;;
20124;SDS011;10223;50.862;4.360;2023-03-30T08:18:58;11.30;;;2.57;;
20124;SDS011;10223;50.862;4.360;2023-03-30T08:21:25;17.63;;;2.70;;
20124;SDS011;10223;50.862;4.360;2023-03-30T08:23:53;8.37;;;1.90;;
20124;SDS011;10223;50.862;4.360;2023-03-30T08:26:23;15.27;;;2.30;;
20124;SDS011;10223;50.862;4.360;2023-03-30T08:28:50;14.33;;;2.20;;
20124;SDS011;10223;50.862;4.360;2023-03-30T08:31:17;9.97;;;1.70;;
20124;SDS011;10223;50.862;4.360;2023-03-30T08:33:45;13.30;;;2.13;;
20124;SDS011;10223;50.862;4.360;2023-03-30T08:36:12;5.23;;;1.30;;
20124;SDS011;10223;50.862;4.360;2023-03-30T08:38:39;8.70;;;1.77;;
20124;SDS011;10223;50.862;4.360;2023-03-30T08:41:15;11.43;;;1.83;;
20124;SDS011;10223;50.862;4.360;2023-03-30T08:44:08;12.53;;;1.73;;
20124;SDS011;10223;50.862;4.360;2023-03-30T08:46:45;5.27;;;1.70;;
20124;SDS011;10223;50.862;4.360;2023-03-30T08:49:13;12.03;;;2.00;;
20124;SDS011;10223;50.862;4.360;2023-03-30T08:51:43;8.50;;;1.90;;
20124;SDS011;10223;50.862;4.360;2023-03-30T08:54:13;9.37;;;2.23;;
20124;SDS011;10223;50.862;4.360;2023-03-30T08:56:45;22.70;;;6.67;;
20124;SDS011;10223;50.862;4.360;2023-03-30T08:59:22;20.97;;;4.33;;
20124;SDS011;10223;50.862;4.360;2023-03-30T09:01:57;16.43;;;2.50;;
20124;SDS011;10223;50.862;4.360;2023-03-30T09:04:27;16.23;;;3.10;;
20124;SDS011;10223;50.862;4.360;2023-03-30T09:07:06;8.73;;;1.80;;
20124;SDS011;10223;50.862;4.360;2023-03-30T09:09:40;11.93;;;2.43;;
20124;SDS011;10223;50.862;4.360;2023-03-30T09:12:12;14.90;;;2.87;;
20124;SDS011;10223;50.862;4.360;2023-03-30T09:14:47;12.73;;;2.50;;
20124;SDS011;10223;50.862;4.360;2023-03-30T09:17:18;15.33;;;2.87;;
20124;SDS011;10223;50.862;4.360;2023-03-30T09:19:49;17.10;;;3.00;;
20124;SDS011;10223;50.862;4.360;2023-03-30T09:22:19;15.37;;;2.63;;
20124;SDS011;10223;50.862;4.360;2023-03-30T09:24:50;17.50;;;2.80;;
20124;SDS011;10223;50.862;4.360;2023-03-30T09:27:20;13.83;;;3.10;;
20124;SDS011;10223;50.862;4.360;2023-03-30T09:30:12;18.00;;;3.10;;
20124;SDS011;10223;50.862;4.360;2023-03-30T09:32:45;19.43;;;3.83;;
20124;SDS011;10223;50.862;4.360;2023-03-30T09:35:22;15.13;;;3.40;;
20124;SDS011;10223;50.862;4.360;2023-03-30T09:37:53;19.17;;;3.63;;
20124;SDS011;10223;50.862;4.360;2023-03-30T09:40:23;21.03;;;3.70;;
20124;SDS011;10223;50.862;4.360;2023-03-30T09:43:03;20.57;;;3.07;;
20124;SDS011;10223;50.862;4.360;2023-03-30T09:45:38;15.40;;;3.60;;
20124;SDS011;10223;50.862;4.360;2023-03-30T09:48:07;14.93;;;3.50;;
20124;SDS011;10223;50.862;4.360;2023-03-30T09:50:43;20.20;;;4.30;;
20124;SDS011;10223;50.862;4.360;2023-03-30T09:53:18;17.40;;;3.37;;
20124;SDS011;10223;50.862;4.360;2023-03-30T09:55:56;13.23;;;2.53;;
20124;SDS011;10223;50.862;4.360;2023-03-30T09:58:27;13.00;;;3.00;;
20124;SDS011;10223;50.862;4.360;2023-03-30T10:01:03;12.83;;;3.20;;
20124;SDS011;10223;50.862;4.360;2023-03-30T10:03:32;13.70;;;3.03;;
20124;SDS011;10223;50.862;4.360;2023-03-30T10:08:34;15.73;;;3.30;;
20124;SDS011;10223;50.862;4.360;2023-03-30T10:11:05;9.50;;;2.37;;
20124;SDS011;10223;50.862;4.360;2023-03-30T10:13:36;10.20;;;2.70;;
20124;SDS011;10223;50.862;4.360;2023-03-30T10:16:07;10.83;;;2.90;;
20124;SDS011;10223;50.862;4.360;2023-03-30T10:18:40;10.37;;;2.50;;
20124;SDS011;10223;50.862;4.360;2023-03-30T10:21:19;10.93;;;2.50;;
20124;SDS011;10223;50.862;4.360;2023-03-30T10:23:58;9.47;;;2.33;;
20124;SDS011;10223;50.862;4.360;2023-03-30T10:26:28;9.70;;;2.37;;
20124;SDS011;10223;50.862;4.360;2023-03-30T10:28:59;8.83;;;2.23;;
20124;SDS011;10223;50.862;4.360;2023-03-30T10:31:28;9.90;;;2.27;;
20124;SDS011;10223;50.862;4.360;2023-03-30T10:33:56;11.60;;;2.50;;
20124;SDS011;10223;50.862;4.360;2023-03-30T10:36:26;10.10;;;2.30;;
20124;SDS011;10223;50.862;4.360;2023-03-30T10:38:56;9.30;;;2.03;;
20124;SDS011;10223;50.862;4.360;2023-03-30T10:41:30;10.37;;;2.80;;
20124;SDS011;10223;50.862;4.360;2023-03-30T10:44:05;15.50;;;2.43;;
20124;SDS011;10223;50.862;4.360;2023-03-30T10:46:47;13.63;;;2.50;;
20124;SDS011;10223;50.862;4.360;2023-03-30T10:49:19;13.97;;;2.43;;
20124;SDS011;10223;50.862;4.360;2023-03-30T10:52:02;14.80;;;2.47;;
20124;SDS011;10223;50.862;4.360;2023-03-30T10:57:12;14.43;;;2.80;;
20124;SDS011;10223;50.862;4.360;2023-03-30T10:59:46;15.93;;;2.47;;
20124;SDS011;10223;50.862;4.360;2023-03-30T11:05:10;14.33;;;3.17;;
20124;SDS011;10223;50.862;4.360;2023-03-30T11:07:42;14.60;;;2.97;;
20124;SDS011;10223;50.862;4.360;2023-03-30T11:10:13;9.20;;;2.40;;
20124;SDS011;10223;50.862;4.360;2023-03-30T11:12:45;13.23;;;3.33;;
20124;SDS011;10223;50.862;4.360;2023-03-30T11:15:20;16.23;;;2.73;;
20124;SDS011;10223;50.862;4.360;2023-03-30T11:17:53;12.80;;;2.70;;
20124;SDS011;10223;50.862;4.360;2023-03-30T11:20:26;19.23;;;2.83;;
20124;SDS011;10223;50.862;4.360;2023-03-30T11:23:02;14.30;;;3.20;;
20124;SDS011;10223;50.862;4.360;2023-03-30T11:25:38;19.80;;;3.33;;
20124;SDS011;10223;50.862;4.360;2023-03-30T11:28:13;19.20;;;3.03;;
20124;SDS011;10223;50.862;4.360;2023-03-30T11:30:49;15.23;;;2.53;;
20124;SDS011;10223;50.862;4.360;2023-03-30T11:33:22;13.60;;;2.73;;
20124;SDS011;10223;50.862;4.360;2023-03-30T11:35:54;18.17;;;3.27;;
20124;SDS011;10223;50.862;4.360;2023-03-30T11:38:26;19.17;;;3.17;;
20124;SDS011;10223;50.862;4.360;2023-03-30T11:41:08;16.13;;;2.43;;
20124;SDS011;10223;50.862;4.360;2023-03-30T11:43:38;15.00;;;2.97;;
20124;SDS011;10223;50.862;4.360;2023-03-30T11:46:08;13.13;;;2.47;;
20124;SDS011;10223;50.862;4.360;2023-03-30T11:48:46;18.87;;;2.93;;
20124;SDS011;10223;50.862;4.360;2023-03-30T11:51:51;12.60;;;2.50;;
20124;SDS011;10223;50.862;4.360;2023-03-30T11:54:33;17.33;;;2.77;;
20124;SDS011;10223;50.862;4.360;2023-03-30T11:57:18;17.93;;;3.23;;
20124;SDS011;10223;50.862;4.360;2023-03-30T11:59:58;18.83;;;3.53;;
20124;SDS011;10223;50.862;4.360;2023-03-30T12:02:36;17.97;;;3.13;;
20124;SDS011;10223;50.862;4.360;2023-03-30T12:05:10;14.27;;;2.63;;
20124;SDS011;10223;50.862;4.360;2023-03-30T12:07:46;18.57;;;2.77;;
20124;SDS011;10223;50.862;4.360;2023-03-30T12:10:20;15.17;;;2.43;;
20124;SDS011;10223;50.862;4.360;2023-03-30T12:12:53;16.77;;;2.97;;
20124;SDS011;10223;50.862;4.360;2023-03-30T12:15:25;16.83;;;2.67;;
20124;SDS011;10223;50.862;4.360;2023-03-30T12:18:01;17.40;;;2.92;;
20124;SDS011;10223;50.862;4.360;2023-03-30T12:20:37;19.60;;;2.80;;
20124;SDS011;10223;50.862;4.360;2023-03-30T12:26:05;14.23;;;2.00;;
20124;SDS011;10223;50.862;4.360;2023-03-30T12:28:45;14.17;;;2.30;;
20124;SDS011;10223;50.862;4.360;2023-03-30T12:31:13;18.77;;;2.97;;
20124;SDS011;10223;50.862;4.360;2023-03-30T12:33:45;15.43;;;2.57;;
20124;SDS011;10223;50.862;4.360;2023-03-30T12:36:21;16.40;;;3.10;;
20124;SDS011;10223;50.862;4.360;2023-03-30T12:38:51;20.60;;;3.00;;
20124;SDS011;10223;50.862;4.360;2023-03-30T12:41:23;13.80;;;2.53;;
20124;SDS011;10223;50.862;4.360;2023-03-30T12:43:58;14.27;;;2.50;;
20124;SDS011;10223;50.862;4.360;2023-03-30T12:46:40;17.10;;;2.87;;
20124;SDS011;10223;50.862;4.360;2023-03-30T12:49:20;14.07;;;2.03;;
20124;SDS011;10223;50.862;4.360;2023-03-30T12:52:00;13.53;;;2.53;;
20124;SDS011;10223;50.862;4.360;2023-03-30T12:54:47;9.93;;;1.93;;
20124;SDS011;10223;50.862;4.360;2023-03-30T13:00:24;14.30;;;2.00;;
20124;SDS011;10223;50.862;4.360;2023-03-30T13:06:17;12.87;;;2.13;;
20124;SDS011;10223;50.862;4.360;2023-03-30T13:08:52;19.13;;;2.60;;
20124;SDS011;10223;50.862;4.360;2023-03-30T13:11:22;13.37;;;2.13;;
20124;SDS011;10223;50.862;4.360;2023-03-30T13:13:52;9.47;;;2.17;;
20124;SDS011;10223;50.862;4.360;2023-03-30T13:19:39;19.63;;;2.50;;
20124;SDS011;10223;50.862;4.360;2023-03-30T13:22:29;13.67;;;2.30;;
20124;SDS011;10223;50.862;4.360;2023-03-30T13:24:58;17.10;;;2.87;;
20124;SDS011;10223;50.862;4.360;2023-03-30T13:27:29;14.70;;;2.20;;
20124;SDS011;10223;50.862;4.360;2023-03-30T13:29:58;19.73;;;2.43;;
20124;SDS011;10223;50.862;4.360;2023-03-30T13:32:33;11.63;;;2.80;;
20124;SDS011;10223;50.862;4.360;2023-03-30T13:35:18;13.95;;;2.83;;
20124;SDS011;10223;50.862;4.360;2023-03-30T13:38:10;10.68;;;2.22;;
20124;SDS011;10223;50.862;4.360;2023-03-30T13:40:49;13.20;;;2.20;;
20124;SDS011;10223;50.862;4.360;2023-03-30T13:43:28;9.50;;;2.10;;
20124;SDS011;10223;50.862;4.360;2023-03-30T13:46:03;12.77;;;1.90;;
20124;SDS011;10223;50.862;4.360;2023-03-30T13:48:42;17.20;;;2.00;;
20124;SDS011;10223;50.862;4.360;2023-03-30T13:51:22;10.70;;;2.43;;
20124;SDS011;10223;50.862;4.360;2023-03-30T13:53:54;10.80;;;2.27;;
20124;SDS011;10223;50.862;4.360;2023-03-30T13:56:25;12.40;;;1.87;;
20124;SDS011;10223;50.862;4.360;2023-03-30T13:58:56;14.93;;;2.40;;
20124;SDS011;10223;50.862;4.360;2023-03-30T14:01:28;7.60;;;2.00;;
20124;SDS011;10223;50.862;4.360;2023-03-30T14:03:55;16.23;;;2.30;;
20124;SDS011;10223;50.862;4.360;2023-03-30T14:06:25;10.10;;;2.53;;
20124;SDS011;10223;50.862;4.360;2023-03-30T14:09:07;8.13;;;2.10;;
20124;SDS011;10223;50.862;4.360;2023-03-30T14:11:36;8.20;;;1.90;;
20124;SDS011;10223;50.862;4.360;2023-03-30T14:14:05;12.88;;;2.70;;
20124;SDS011;10223;50.862;4.360;2023-03-30T14:16:33;10.48;;;2.40;;
20124;SDS011;10223;50.862;4.360;2023-03-30T14:19:04;12.98;;;2.42;;
20124;SDS011;10223;50.862;4.360;2023-03-30T14:21:38;10.90;;;2.20;;
20124;SDS011;10223;50.862;4.360;2023-03-30T14:24:11;11.00;;;2.13;;
20124;SDS011;10223;50.862;4.360;2023-03-30T14:26:40;4.53;;;1.07;;
20124;SDS011;10223;50.862;4.360;2023-03-30T14:29:12;7.80;;;1.57;;
20124;SDS011;10223;50.862;4.360;2023-03-30T14:31:42;9.43;;;2.43;;
20124;SDS011;10223;50.862;4.360;2023-03-30T14:34:23;10.90;;;2.10;;
20124;SDS011;10223;50.862;4.360;2023-03-30T14:36:52;9.60;;;1.37;;
20124;SDS011;10223;50.862;4.360;2023-03-30T14:39:21;7.70;;;1.43;;
20124;SDS011;10223;50.862;4.360;2023-03-30T14:41:49;13.20;;;2.37;;
20124;SDS011;10223;50.862;4.360;2023-03-30T14:44:16;10.47;;;1.53;;
20124;SDS011;10223;50.862;4.360;2023-03-30T14:46:48;7.53;;;1.20;;
20124;SDS011;10223;50.862;4.360;2023-03-30T14:49:17;7.10;;;1.37;;
20124;SDS011;10223;50.862;4.360;2023-03-30T14:51:46;12.30;;;1.77;;
20124;SDS011;10223;50.862;4.360;2023-03-30T14:54:15;8.37;;;1.70;;
20124;SDS011;10223;50.862;4.360;2023-03-30T14:56:54;9.73;;;1.43;;
20124;SDS011;10223;50.862;4.360;2023-03-30T14:59:23;15.23;;;1.77;;
20124;SDS011;10223;50.862;4.360;2023-03-30T15:01:51;13.03;;;2.27;;
20124;SDS011;10223;50.862;4.360;2023-03-30T15:04:20;9.90;;;1.93;;
20124;SDS011;10223;50.862;4.360;2023-03-30T15:06:50;12.37;;;1.90;;
20124;SDS011;10223;50.862;4.360;2023-03-30T15:09:18;5.70;;;1.60;;
20124;SDS011;10223;50.862;4.360;2023-03-30T15:11:49;7.03;;;2.10;;
20124;SDS011;10223;50.862;4.360;2023-03-30T15:14:20;8.83;;;1.50;;
20124;SDS011;10223;50.862;4.360;2023-03-30T15:16:48;9.43;;;2.57;;
20124;SDS011;10223;50.862;4.360;2023-03-30T15:19:20;7.22;;;1.40;;
20124;SDS011;10223;50.862;4.360;2023-03-30T15:21:52;9.70;;;1.60;;
20124;SDS011;10223;50.862;4.360;2023-03-30T15:24:23;5.82;;;1.00;;
20124;SDS011;10223;50.862;4.360;2023-03-30T15:26:54;3.22;;;0.82;;
20124;SDS011;10223;50.862;4.360;2023-03-30T15:29:24;6.15;;;1.77;;
20124;SDS011;10223;50.862;4.360;2023-03-30T15:31:57;3.80;;;1.20;;
20124;SDS011;10223;50.862;4.360;2023-03-30T15:34:26;7.00;;;1.50;;